sensor_id;sensor_type;location;lat;lon;timestamp;P1;durP1;ratioP1;P2;durP2;ratioP2
3329;SDS011;1677;49.576;10.990;2022-07-29T00:01:05;7.87;;;2.53;;
3329;SDS011;1677;49.576;10.990;2022-07-29T00:03:31;2.85;;;2.50;;
3329;SDS011;1677;49.576;10.990;2022-07-29T00:05:57;7.27;;;2.23;;
3329;SDS011;1677;49.576;10.990;2022-07-29T00:08:23;3.90;;;2.30;;
3329;SDS011;1677;49.576;10.990;2022-07-29T00:10:48;4.27;;;2.03;;
3329;SDS011;1677;49.576;10.990;2022-07-29T00:13:14;5.57;;;2.80;;
3329;SDS011;1677;49.576;10.990;2022-07-29T00:15:40;3.30;;;2.30;;
3329;SDS011;1677;49.576;10.990;2022-07-29T00:18:05;6.63;;;2.20;;
3329;SDS011;1677;49.576;10.990;2022-07-29T00:20:31;2.50;;;1.93;;
3329;SDS011;1677;49.576;10.990;2022-07-29T00:22:57;3.70;;;3.17;;
3329;SDS011;1677;49.576;10.990;2022-07-29T00:25:22;2.53;;;1.93;;
3329;SDS011;1677;49.576;10.990;2022-07-29T00:27:48;2.40;;;2.20;;
3329;SDS011;1677;49.576;10.990;2022-07-29T00:30:13;3.45;;;2.30;;
3329;SDS011;1677;49.576;10.990;2022-07-29T00:32:39;2.70;;;2.20;;
3329;SDS011;1677;49.576;10.990;2022-07-29T00:35:05;3.13;;;2.23;;
3329;SDS011;1677;49.576;10.990;2022-07-29T00:38:03;6.20;;;2.03;;
3329;SDS011;1677;49.576;10.990;2022-07-29T00:40:29;4.57;;;2.80;;
3329;SDS011;1677;49.576;10.990;2022-07-29T00:42:54;3.15;;;2.50;;
3329;SDS011;1677;49.576;10.990;2022-07-29T00:45:20;2.63;;;2.43;;
3329;SDS011;1677;49.576;10.990;2022-07-29T00:47:47;2.77;;;2.00;;
3329;SDS011;1677;49.576;10.990;2022-07-29T00:50:13;2.37;;;2.10;;
3329;SDS011;1677;49.576;10.990;2022-07-29T00:52:40;2.77;;;2.20;;
3329;SDS011;1677;49.576;10.990;2022-07-29T00:55:08;4.10;;;2.07;;
3329;SDS011;1677;49.576;10.990;2022-07-29T00:57:38;5.30;;;2.20;;
3329;SDS011;1677;49.576;10.990;2022-07-29T01:00:06;3.00;;;2.40;;
3329;SDS011;1677;49.576;10.990;2022-07-29T01:02:34;2.67;;;2.40;;
3329;SDS011;1677;49.576;10.990;2022-07-29T01:05:01;3.20;;;2.30;;
3329;SDS011;1677;49.576;10.990;2022-07-29T01:07:28;2.60;;;2.30;;
3329;SDS011;1677;49.576;10.990;2022-07-29T01:09:57;3.20;;;2.30;;
3329;SDS011;1677;49.576;10.990;2022-07-29T01:12:26;3.20;;;2.27;;
3329;SDS011;1677;49.576;10.990;2022-07-29T01:14:53;3.70;;;2.60;;
3329;SDS011;1677;49.576;10.990;2022-07-29T01:17:33;5.83;;;2.70;;
3329;SDS011;1677;49.576;10.990;2022-07-29T01:22:53;3.73;;;2.33;;
3329;SDS011;1677;49.576;10.990;2022-07-29T01:31:36;3.10;;;2.30;;
3329;SDS011;1677;49.576;10.990;2022-07-29T01:34:10;4.13;;;2.20;;
3329;SDS011;1677;49.576;10.990;2022-07-29T01:36:46;6.00;;;2.50;;
3329;SDS011;1677;49.576;10.990;2022-07-29T01:39:29;6.33;;;2.20;;
3329;SDS011;1677;49.576;10.990;2022-07-29T01:44:57;3.33;;;2.30;;
3329;SDS011;1677;49.576;10.990;2022-07-29T01:47:39;5.33;;;2.60;;
3329;SDS011;1677;49.576;10.990;2022-07-29T01:50:11;3.47;;;2.40;;
3329;SDS011;1677;49.576;10.990;2022-07-29T01:52:47;4.50;;;2.47;;
3329;SDS011;1677;49.576;10.990;2022-07-29T01:55:22;5.90;;;2.50;;
3329;SDS011;1677;49.576;10.990;2022-07-29T01:57:53;3.47;;;2.60;;
3329;SDS011;1677;49.576;10.990;2022-07-29T02:00:21;4.67;;;2.50;;
3329;SDS011;1677;49.576;10.990;2022-07-29T02:02:48;2.57;;;2.37;;
3329;SDS011;1677;49.576;10.990;2022-07-29T02:05:15;5.10;;;2.60;;
3329;SDS011;1677;49.576;10.990;2022-07-29T02:07:46;4.37;;;2.40;;
3329;SDS011;1677;49.576;10.990;2022-07-29T02:10:13;2.50;;;2.30;;
3329;SDS011;1677;49.576;10.990;2022-07-29T02:12:40;3.97;;;2.53;;
3329;SDS011;1677;49.576;10.990;2022-07-29T02:15:08;3.17;;;2.20;;
3329;SDS011;1677;49.576;10.990;2022-07-29T02:17:44;6.50;;;2.20;;
3329;SDS011;1677;49.576;10.990;2022-07-29T02:20:13;3.60;;;2.83;;
3329;SDS011;1677;49.576;10.990;2022-07-29T02:22:40;5.30;;;3.30;;
3329;SDS011;1677;49.576;10.990;2022-07-29T02:25:08;2.80;;;2.20;;
3329;SDS011;1677;49.576;10.990;2022-07-29T02:27:36;3.70;;;2.07;;
3329;SDS011;1677;49.576;10.990;2022-07-29T02:30:04;3.30;;;2.93;;
3329;SDS011;1677;49.576;10.990;2022-07-29T02:32:31;3.03;;;2.23;;
3329;SDS011;1677;49.576;10.990;2022-07-29T02:34:59;3.20;;;2.30;;
3329;SDS011;1677;49.576;10.990;2022-07-29T02:37:26;2.50;;;2.30;;
3329;SDS011;1677;49.576;10.990;2022-07-29T02:39:54;4.15;;;2.60;;
3329;SDS011;1677;49.576;10.990;2022-07-29T02:42:21;5.50;;;2.73;;
3329;SDS011;1677;49.576;10.990;2022-07-29T02:44:48;3.80;;;1.93;;
3329;SDS011;1677;49.576;10.990;2022-07-29T02:47:19;2.57;;;2.30;;
3329;SDS011;1677;49.576;10.990;2022-07-29T02:50:22;3.67;;;2.20;;
3329;SDS011;1677;49.576;10.990;2022-07-29T02:52:58;5.77;;;2.93;;
3329;SDS011;1677;49.576;10.990;2022-07-29T02:55:38;2.80;;;2.47;;
3329;SDS011;1677;49.576;10.990;2022-07-29T03:00:53;5.10;;;2.60;;
3329;SDS011;1677;49.576;10.990;2022-07-29T03:03:24;2.73;;;2.37;;
3329;SDS011;1677;49.576;10.990;2022-07-29T03:05:55;2.60;;;2.30;;
3329;SDS011;1677;49.576;10.990;2022-07-29T03:08:22;3.20;;;2.50;;
3329;SDS011;1677;49.576;10.990;2022-07-29T03:10:49;4.60;;;2.83;;
3329;SDS011;1677;49.576;10.990;2022-07-29T03:13:16;2.60;;;2.40;;
3329;SDS011;1677;49.576;10.990;2022-07-29T03:15:43;2.80;;;2.50;;
3329;SDS011;1677;49.576;10.990;2022-07-29T03:18:09;3.67;;;2.60;;
3329;SDS011;1677;49.576;10.990;2022-07-29T03:20:36;2.37;;;2.17;;
3329;SDS011;1677;49.576;10.990;2022-07-29T03:23:03;7.10;;;2.60;;
3329;SDS011;1677;49.576;10.990;2022-07-29T03:25:29;4.10;;;2.63;;
3329;SDS011;1677;49.576;10.990;2022-07-29T03:27:55;3.23;;;2.67;;
3329;SDS011;1677;49.576;10.990;2022-07-29T03:30:21;2.40;;;2.07;;
3329;SDS011;1677;49.576;10.990;2022-07-29T03:32:48;4.50;;;2.60;;
3329;SDS011;1677;49.576;10.990;2022-07-29T03:35:17;3.07;;;2.70;;
3329;SDS011;1677;49.576;10.990;2022-07-29T03:37:43;3.10;;;2.67;;
3329;SDS011;1677;49.576;10.990;2022-07-29T03:40:10;7.87;;;2.40;;
3329;SDS011;1677;49.576;10.990;2022-07-29T03:42:39;3.30;;;2.23;;
3329;SDS011;1677;49.576;10.990;2022-07-29T03:45:08;4.23;;;2.80;;
3329;SDS011;1677;49.576;10.990;2022-07-29T03:47:45;3.33;;;2.57;;
3329;SDS011;1677;49.576;10.990;2022-07-29T03:50:16;2.80;;;2.50;;
3329;SDS011;1677;49.576;10.990;2022-07-29T03:52:44;5.50;;;2.30;;
3329;SDS011;1677;49.576;10.990;2022-07-29T03:55:10;6.17;;;2.83;;
3329;SDS011;1677;49.576;10.990;2022-07-29T03:57:36;3.28;;;2.80;;
3329;SDS011;1677;49.576;10.990;2022-07-29T04:00:04;3.97;;;2.47;;
3329;SDS011;1677;49.576;10.990;2022-07-29T04:02:32;6.83;;;2.67;;
3329;SDS011;1677;49.576;10.990;2022-07-29T04:04:58;3.90;;;2.60;;
3329;SDS011;1677;49.576;10.990;2022-07-29T04:07:23;3.53;;;2.40;;
3329;SDS011;1677;49.576;10.990;2022-07-29T04:09:49;4.50;;;2.83;;
3329;SDS011;1677;49.576;10.990;2022-07-29T04:12:15;3.93;;;2.60;;
3329;SDS011;1677;49.576;10.990;2022-07-29T04:14:40;3.67;;;3.37;;
3329;SDS011;1677;49.576;10.990;2022-07-29T04:17:06;4.00;;;3.23;;
3329;SDS011;1677;49.576;10.990;2022-07-29T04:19:31;3.77;;;2.83;;
3329;SDS011;1677;49.576;10.990;2022-07-29T04:21:58;6.13;;;2.80;;
3329;SDS011;1677;49.576;10.990;2022-07-29T04:24:24;2.67;;;2.17;;
3329;SDS011;1677;49.576;10.990;2022-07-29T04:26:50;6.65;;;2.83;;
3329;SDS011;1677;49.576;10.990;2022-07-29T04:29:16;4.60;;;4.20;;
3329;SDS011;1677;49.576;10.990;2022-07-29T04:31:42;5.43;;;2.50;;
3329;SDS011;1677;49.576;10.990;2022-07-29T04:34:08;3.97;;;3.00;;
3329;SDS011;1677;49.576;10.990;2022-07-29T04:36:34;4.50;;;2.43;;
3329;SDS011;1677;49.576;10.990;2022-07-29T04:38:59;3.97;;;2.23;;
3329;SDS011;1677;49.576;10.990;2022-07-29T04:41:26;5.37;;;3.03;;
3329;SDS011;1677;49.576;10.990;2022-07-29T04:43:52;3.03;;;2.77;;
3329;SDS011;1677;49.576;10.990;2022-07-29T04:46:18;5.63;;;2.83;;
3329;SDS011;1677;49.576;10.990;2022-07-29T04:48:45;3.13;;;2.70;;
3329;SDS011;1677;49.576;10.990;2022-07-29T04:51:11;3.93;;;2.80;;
3329;SDS011;1677;49.576;10.990;2022-07-29T04:53:37;3.67;;;2.70;;
3329;SDS011;1677;49.576;10.990;2022-07-29T04:56:03;5.53;;;2.83;;
3329;SDS011;1677;49.576;10.990;2022-07-29T04:58:28;4.90;;;2.63;;
3329;SDS011;1677;49.576;10.990;2022-07-29T05:00:54;4.00;;;3.20;;
3329;SDS011;1677;49.576;10.990;2022-07-29T05:03:20;2.93;;;2.67;;
3329;SDS011;1677;49.576;10.990;2022-07-29T05:05:45;6.40;;;3.00;;
3329;SDS011;1677;49.576;10.990;2022-07-29T05:08:11;4.10;;;3.80;;
3329;SDS011;1677;49.576;10.990;2022-07-29T05:10:37;5.83;;;3.00;;
3329;SDS011;1677;49.576;10.990;2022-07-29T05:13:06;6.20;;;3.27;;
3329;SDS011;1677;49.576;10.990;2022-07-29T05:15:33;9.13;;;3.47;;
3329;SDS011;1677;49.576;10.990;2022-07-29T05:18:00;6.60;;;3.15;;
3329;SDS011;1677;49.576;10.990;2022-07-29T05:20:26;4.20;;;3.80;;
3329;SDS011;1677;49.576;10.990;2022-07-29T05:22:54;6.50;;;3.33;;
3329;SDS011;1677;49.576;10.990;2022-07-29T05:25:21;7.73;;;3.20;;
3329;SDS011;1677;49.576;10.990;2022-07-29T05:27:46;4.43;;;3.03;;
3329;SDS011;1677;49.576;10.990;2022-07-29T05:30:12;3.17;;;2.87;;
3329;SDS011;1677;49.576;10.990;2022-07-29T05:32:38;3.40;;;2.60;;
3329;SDS011;1677;49.576;10.990;2022-07-29T05:35:03;8.77;;;3.10;;
3329;SDS011;1677;49.576;10.990;2022-07-29T05:37:29;4.00;;;2.93;;
3329;SDS011;1677;49.576;10.990;2022-07-29T05:39:55;5.23;;;2.57;;
3329;SDS011;1677;49.576;10.990;2022-07-29T05:42:21;6.10;;;2.90;;
3329;SDS011;1677;49.576;10.990;2022-07-29T05:44:46;5.17;;;2.93;;
3329;SDS011;1677;49.576;10.990;2022-07-29T05:47:12;3.90;;;2.33;;
3329;SDS011;1677;49.576;10.990;2022-07-29T05:49:38;4.07;;;2.90;;
3329;SDS011;1677;49.576;10.990;2022-07-29T05:52:04;3.67;;;2.83;;
3329;SDS011;1677;49.576;10.990;2022-07-29T05:54:29;7.20;;;2.97;;
3329;SDS011;1677;49.576;10.990;2022-07-29T05:56:55;9.03;;;3.00;;
3329;SDS011;1677;49.576;10.990;2022-07-29T05:59:21;3.90;;;2.90;;
3329;SDS011;1677;49.576;10.990;2022-07-29T06:01:46;2.67;;;2.40;;
3329;SDS011;1677;49.576;10.990;2022-07-29T06:04:12;4.80;;;2.47;;
3329;SDS011;1677;49.576;10.990;2022-07-29T06:06:38;4.23;;;2.50;;
3329;SDS011;1677;49.576;10.990;2022-07-29T06:09:03;4.00;;;2.70;;
3329;SDS011;1677;49.576;10.990;2022-07-29T06:11:29;2.83;;;2.23;;
3329;SDS011;1677;49.576;10.990;2022-07-29T06:13:54;4.67;;;2.20;;
3329;SDS011;1677;49.576;10.990;2022-07-29T06:16:20;2.80;;;2.57;;
3329;SDS011;1677;49.576;10.990;2022-07-29T06:18:46;4.67;;;2.30;;
3329;SDS011;1677;49.576;10.990;2022-07-29T06:21:11;4.00;;;2.30;;
3329;SDS011;1677;49.576;10.990;2022-07-29T06:23:37;2.90;;;2.60;;
3329;SDS011;1677;49.576;10.990;2022-07-29T06:26:04;3.33;;;2.27;;
3329;SDS011;1677;49.576;10.990;2022-07-29T06:28:30;3.13;;;2.37;;
3329;SDS011;1677;49.576;10.990;2022-07-29T06:30:56;3.20;;;2.60;;
3329;SDS011;1677;49.576;10.990;2022-07-29T06:33:21;4.80;;;2.63;;
3329;SDS011;1677;49.576;10.990;2022-07-29T06:35:47;4.47;;;2.83;;
3329;SDS011;1677;49.576;10.990;2022-07-29T06:38:13;3.20;;;2.30;;
3329;SDS011;1677;49.576;10.990;2022-07-29T06:40:43;6.45;;;2.70;;
3329;SDS011;1677;49.576;10.990;2022-07-29T06:43:29;4.97;;;2.60;;
3329;SDS011;1677;49.576;10.990;2022-07-29T06:46:06;3.70;;;2.30;;
3329;SDS011;1677;49.576;10.990;2022-07-29T06:48:36;3.00;;;2.77;;
3329;SDS011;1677;49.576;10.990;2022-07-29T06:51:02;3.67;;;2.43;;
3329;SDS011;1677;49.576;10.990;2022-07-29T06:53:29;3.70;;;3.10;;
3329;SDS011;1677;49.576;10.990;2022-07-29T06:55:55;3.47;;;3.17;;
3329;SDS011;1677;49.576;10.990;2022-07-29T06:58:23;6.30;;;3.13;;
3329;SDS011;1677;49.576;10.990;2022-07-29T07:00:49;5.50;;;3.20;;
3329;SDS011;1677;49.576;10.990;2022-07-29T07:03:15;4.80;;;2.80;;
3329;SDS011;1677;49.576;10.990;2022-07-29T07:05:41;3.17;;;2.87;;
3329;SDS011;1677;49.576;10.990;2022-07-29T07:08:07;3.60;;;3.30;;
3329;SDS011;1677;49.576;10.990;2022-07-29T07:10:33;4.40;;;3.30;;
3329;SDS011;1677;49.576;10.990;2022-07-29T07:12:59;3.50;;;3.20;;
3329;SDS011;1677;49.576;10.990;2022-07-29T07:15:25;3.17;;;2.83;;
3329;SDS011;1677;49.576;10.990;2022-07-29T07:17:52;3.77;;;2.80;;
3329;SDS011;1677;49.576;10.990;2022-07-29T07:20:17;6.23;;;3.30;;
3329;SDS011;1677;49.576;10.990;2022-07-29T07:22:43;4.07;;;3.43;;
3329;SDS011;1677;49.576;10.990;2022-07-29T07:25:09;5.90;;;3.10;;
3329;SDS011;1677;49.576;10.990;2022-07-29T07:27:36;7.47;;;3.40;;
3329;SDS011;1677;49.576;10.990;2022-07-29T07:30:03;4.27;;;3.63;;
3329;SDS011;1677;49.576;10.990;2022-07-29T07:32:33;4.10;;;3.20;;
3329;SDS011;1677;49.576;10.990;2022-07-29T07:34:59;10.07;;;3.37;;
3329;SDS011;1677;49.576;10.990;2022-07-29T07:37:25;6.33;;;3.73;;
3329;SDS011;1677;49.576;10.990;2022-07-29T07:39:51;6.23;;;3.83;;
3329;SDS011;1677;49.576;10.990;2022-07-29T07:42:18;3.20;;;2.90;;
3329;SDS011;1677;49.576;10.990;2022-07-29T07:44:43;6.63;;;4.13;;
3329;SDS011;1677;49.576;10.990;2022-07-29T07:47:10;6.70;;;3.40;;
3329;SDS011;1677;49.576;10.990;2022-07-29T07:49:37;3.13;;;2.83;;
3329;SDS011;1677;49.576;10.990;2022-07-29T07:52:03;7.80;;;3.10;;
3329;SDS011;1677;49.576;10.990;2022-07-29T07:54:29;4.83;;;3.07;;
3329;SDS011;1677;49.576;10.990;2022-07-29T07:56:55;5.97;;;4.50;;
3329;SDS011;1677;49.576;10.990;2022-07-29T07:59:20;10.40;;;3.60;;
3329;SDS011;1677;49.576;10.990;2022-07-29T08:01:46;6.83;;;3.30;;
3329;SDS011;1677;49.576;10.990;2022-07-29T08:04:11;6.67;;;3.23;;
3329;SDS011;1677;49.576;10.990;2022-07-29T08:06:37;6.10;;;3.63;;
3329;SDS011;1677;49.576;10.990;2022-07-29T08:09:03;4.57;;;3.40;;
3329;SDS011;1677;49.576;10.990;2022-07-29T08:11:29;3.80;;;3.40;;
3329;SDS011;1677;49.576;10.990;2022-07-29T08:13:55;4.00;;;3.70;;
3329;SDS011;1677;49.576;10.990;2022-07-29T08:16:21;4.97;;;3.10;;
3329;SDS011;1677;49.576;10.990;2022-07-29T08:18:46;3.93;;;3.53;;
3329;SDS011;1677;49.576;10.990;2022-07-29T08:21:15;3.80;;;3.50;;
3329;SDS011;1677;49.576;10.990;2022-07-29T08:23:42;3.40;;;3.10;;
3329;SDS011;1677;49.576;10.990;2022-07-29T08:26:15;7.13;;;3.60;;
3329;SDS011;1677;49.576;10.990;2022-07-29T08:28:41;7.57;;;4.47;;
3329;SDS011;1677;49.576;10.990;2022-07-29T08:31:11;4.23;;;3.20;;
3329;SDS011;1677;49.576;10.990;2022-07-29T08:33:37;4.80;;;3.80;;
3329;SDS011;1677;49.576;10.990;2022-07-29T08:36:04;8.60;;;4.03;;
3329;SDS011;1677;49.576;10.990;2022-07-29T08:38:30;3.97;;;3.53;;
3329;SDS011;1677;49.576;10.990;2022-07-29T08:40:56;4.20;;;3.57;;
3329;SDS011;1677;49.576;10.990;2022-07-29T08:43:22;5.97;;;4.50;;
3329;SDS011;1677;49.576;10.990;2022-07-29T08:45:49;5.50;;;4.10;;
3329;SDS011;1677;49.576;10.990;2022-07-29T08:48:16;5.53;;;3.83;;
3329;SDS011;1677;49.576;10.990;2022-07-29T08:50:44;4.33;;;3.27;;
3329;SDS011;1677;49.576;10.990;2022-07-29T08:53:12;6.50;;;4.07;;
3329;SDS011;1677;49.576;10.990;2022-07-29T08:55:40;7.00;;;3.90;;
3329;SDS011;1677;49.576;10.990;2022-07-29T08:58:12;3.80;;;3.50;;
3329;SDS011;1677;49.576;10.990;2022-07-29T09:00:41;4.33;;;3.93;;
3329;SDS011;1677;49.576;10.990;2022-07-29T09:03:11;3.80;;;3.50;;
3329;SDS011;1677;49.576;10.990;2022-07-29T09:05:42;7.20;;;3.57;;
3329;SDS011;1677;49.576;10.990;2022-07-29T09:08:10;4.77;;;3.73;;
3329;SDS011;1677;49.576;10.990;2022-07-29T09:10:36;5.10;;;3.90;;
3329;SDS011;1677;49.576;10.990;2022-07-29T09:13:01;7.90;;;3.70;;
3329;SDS011;1677;49.576;10.990;2022-07-29T09:15:27;5.30;;;3.57;;
3329;SDS011;1677;49.576;10.990;2022-07-29T09:17:53;4.90;;;3.83;;
3329;SDS011;1677;49.576;10.990;2022-07-29T09:20:20;5.95;;;3.88;;
3329;SDS011;1677;49.576;10.990;2022-07-29T09:22:47;6.73;;;4.13;;
3329;SDS011;1677;49.576;10.990;2022-07-29T09:25:14;3.97;;;3.57;;
3329;SDS011;1677;49.576;10.990;2022-07-29T09:28:11;5.33;;;4.53;;
3329;SDS011;1677;49.576;10.990;2022-07-29T09:33:21;4.17;;;3.73;;
3329;SDS011;1677;49.576;10.990;2022-07-29T09:36:00;8.00;;;4.40;;
3329;SDS011;1677;49.576;10.990;2022-07-29T09:38:33;4.17;;;3.80;;
3329;SDS011;1677;49.576;10.990;2022-07-29T09:41:00;3.57;;;3.27;;
3329;SDS011;1677;49.576;10.990;2022-07-29T09:43:27;4.33;;;3.83;;
3329;SDS011;1677;49.576;10.990;2022-07-29T09:45:54;4.10;;;3.70;;
3329;SDS011;1677;49.576;10.990;2022-07-29T09:48:21;3.47;;;3.17;;
3329;SDS011;1677;49.576;10.990;2022-07-29T09:50:48;5.87;;;4.63;;
3329;SDS011;1677;49.576;10.990;2022-07-29T09:55:58;4.50;;;4.10;;
3329;SDS011;1677;49.576;10.990;2022-07-29T09:58:23;4.60;;;4.10;;
3329;SDS011;1677;49.576;10.990;2022-07-29T10:00:49;5.03;;;3.33;;
3329;SDS011;1677;49.576;10.990;2022-07-29T10:03:16;6.23;;;4.20;;
3329;SDS011;1677;49.576;10.990;2022-07-29T10:05:43;7.70;;;3.80;;
3329;SDS011;1677;49.576;10.990;2022-07-29T10:08:09;6.03;;;4.33;;
3329;SDS011;1677;49.576;10.990;2022-07-29T10:10:38;4.73;;;3.77;;
3329;SDS011;1677;49.576;10.990;2022-07-29T10:13:10;4.90;;;4.40;;
3329;SDS011;1677;49.576;10.990;2022-07-29T10:15:38;4.93;;;4.10;;
3329;SDS011;1677;49.576;10.990;2022-07-29T10:18:09;4.77;;;4.27;;
3329;SDS011;1677;49.576;10.990;2022-07-29T10:20:36;4.93;;;4.00;;
3329;SDS011;1677;49.576;10.990;2022-07-29T10:23:03;4.33;;;3.37;;
3329;SDS011;1677;49.576;10.990;2022-07-29T10:25:29;4.55;;;3.90;;
3329;SDS011;1677;49.576;10.990;2022-07-29T10:27:55;4.50;;;3.63;;
3329;SDS011;1677;49.576;10.990;2022-07-29T10:30:21;5.67;;;4.70;;
3329;SDS011;1677;49.576;10.990;2022-07-29T10:33:06;4.03;;;3.60;;
3329;SDS011;1677;49.576;10.990;2022-07-29T10:41:51;5.23;;;3.80;;
3329;SDS011;1677;49.576;10.990;2022-07-29T10:44:24;5.30;;;4.00;;
3329;SDS011;1677;49.576;10.990;2022-07-29T10:46:52;5.37;;;4.10;;
3329;SDS011;1677;49.576;10.990;2022-07-29T10:52:07;4.03;;;3.73;;
3329;SDS011;1677;49.576;10.990;2022-07-29T10:57:13;4.13;;;3.83;;
3329;SDS011;1677;49.576;10.990;2022-07-29T11:05:02;6.50;;;4.37;;
3329;SDS011;1677;49.576;10.990;2022-07-29T11:07:29;4.60;;;4.20;;
3329;SDS011;1677;49.576;10.990;2022-07-29T11:18:04;4.63;;;4.22;;
3329;SDS011;1677;49.576;10.990;2022-07-29T11:28:42;4.13;;;3.83;;
3329;SDS011;1677;49.576;10.990;2022-07-29T11:34:35;4.90;;;4.50;;
3329;SDS011;1677;49.576;10.990;2022-07-29T11:44:58;5.90;;;4.40;;
3329;SDS011;1677;49.576;10.990;2022-07-29T11:47:25;5.67;;;5.27;;
3329;SDS011;1677;49.576;10.990;2022-07-29T11:49:52;5.40;;;4.60;;
3329;SDS011;1677;49.576;10.990;2022-07-29T11:52:19;6.80;;;5.17;;
3329;SDS011;1677;49.576;10.990;2022-07-29T11:54:47;5.67;;;5.03;;
3329;SDS011;1677;49.576;10.990;2022-07-29T11:57:17;4.57;;;4.28;;
3329;SDS011;1677;49.576;10.990;2022-07-29T11:59:44;5.73;;;4.40;;
3329;SDS011;1677;49.576;10.990;2022-07-29T12:02:11;4.47;;;4.07;;
3329;SDS011;1677;49.576;10.990;2022-07-29T12:04:56;4.40;;;3.93;;
3329;SDS011;1677;49.576;10.990;2022-07-29T12:07:30;5.47;;;4.70;;
3329;SDS011;1677;49.576;10.990;2022-07-29T12:09:57;4.87;;;4.40;;
3329;SDS011;1677;49.576;10.990;2022-07-29T12:12:23;4.77;;;4.33;;
3329;SDS011;1677;49.576;10.990;2022-07-29T12:14:49;5.13;;;4.67;;
3329;SDS011;1677;49.576;10.990;2022-07-29T12:17:31;4.90;;;4.50;;
3329;SDS011;1677;49.576;10.990;2022-07-29T12:20:01;5.20;;;4.77;;
3329;SDS011;1677;49.576;10.990;2022-07-29T12:22:29;4.90;;;4.40;;
3329;SDS011;1677;49.576;10.990;2022-07-29T12:25:00;4.57;;;4.17;;
3329;SDS011;1677;49.576;10.990;2022-07-29T12:27:27;5.67;;;5.17;;
3329;SDS011;1677;49.576;10.990;2022-07-29T12:32:23;5.57;;;4.97;;
3329;SDS011;1677;49.576;10.990;2022-07-29T12:34:49;5.13;;;4.50;;
3329;SDS011;1677;49.576;10.990;2022-07-29T12:37:15;5.18;;;4.50;;
3329;SDS011;1677;49.576;10.990;2022-07-29T12:39:41;6.10;;;4.60;;
3329;SDS011;1677;49.576;10.990;2022-07-29T12:42:14;6.50;;;5.37;;
3329;SDS011;1677;49.576;10.990;2022-07-29T12:44:44;4.87;;;4.47;;
3329;SDS011;1677;49.576;10.990;2022-07-29T12:47:13;4.60;;;4.20;;
3329;SDS011;1677;49.576;10.990;2022-07-29T12:49:39;4.53;;;4.13;;
3329;SDS011;1677;49.576;10.990;2022-07-29T12:54:54;5.80;;;4.20;;
3329;SDS011;1677;49.576;10.990;2022-07-29T12:57:20;4.03;;;3.73;;
3329;SDS011;1677;49.576;10.990;2022-07-29T12:59:58;4.87;;;4.37;;
3329;SDS011;1677;49.576;10.990;2022-07-29T13:02:25;4.53;;;4.13;;
3329;SDS011;1677;49.576;10.990;2022-07-29T13:04:55;4.63;;;4.13;;
3329;SDS011;1677;49.576;10.990;2022-07-29T13:07:26;4.80;;;4.30;;
3329;SDS011;1677;49.576;10.990;2022-07-29T13:09:54;4.17;;;3.60;;
3329;SDS011;1677;49.576;10.990;2022-07-29T13:13:23;5.70;;;4.60;;
3329;SDS011;1677;49.576;10.990;2022-07-29T13:15:34;5.00;;;4.60;;
3329;SDS011;1677;49.576;10.990;2022-07-29T13:18:00;4.27;;;3.97;;
3329;SDS011;1677;49.576;10.990;2022-07-29T13:20:27;4.23;;;3.83;;
3329;SDS011;1677;49.576;10.990;2022-07-29T13:22:57;4.40;;;4.00;;
3329;SDS011;1677;49.576;10.990;2022-07-29T13:25:26;4.43;;;3.90;;
3329;SDS011;1677;49.576;10.990;2022-07-29T13:27:57;5.03;;;4.27;;
3329;SDS011;1677;49.576;10.990;2022-07-29T13:30:23;3.63;;;3.43;;
3329;SDS011;1677;49.576;10.990;2022-07-29T13:32:50;5.53;;;4.13;;
3329;SDS011;1677;49.576;10.990;2022-07-29T13:35:16;3.93;;;3.63;;
3329;SDS011;1677;49.576;10.990;2022-07-29T13:37:43;5.70;;;4.00;;
3329;SDS011;1677;49.576;10.990;2022-07-29T13:40:09;3.13;;;2.93;;
3329;SDS011;1677;49.576;10.990;2022-07-29T13:42:35;4.67;;;4.30;;
3329;SDS011;1677;49.576;10.990;2022-07-29T13:45:01;8.00;;;4.10;;
3329;SDS011;1677;49.576;10.990;2022-07-29T13:47:28;4.40;;;3.93;;
3329;SDS011;1677;49.576;10.990;2022-07-29T13:49:53;6.97;;;4.20;;
3329;SDS011;1677;49.576;10.990;2022-07-29T13:52:19;4.50;;;4.20;;
3329;SDS011;1677;49.576;10.990;2022-07-29T13:54:45;3.80;;;3.50;;
3329;SDS011;1677;49.576;10.990;2022-07-29T13:57:11;4.50;;;4.10;;
3329;SDS011;1677;49.576;10.990;2022-07-29T13:59:38;7.73;;;3.90;;
3329;SDS011;1677;49.576;10.990;2022-07-29T14:02:04;6.73;;;4.13;;
3329;SDS011;1677;49.576;10.990;2022-07-29T14:04:30;5.72;;;5.22;;
3329;SDS011;1677;49.576;10.990;2022-07-29T14:06:56;5.87;;;4.27;;
3329;SDS011;1677;49.576;10.990;2022-07-29T14:09:22;5.50;;;3.80;;
3329;SDS011;1677;49.576;10.990;2022-07-29T14:11:48;4.50;;;3.70;;
3329;SDS011;1677;49.576;10.990;2022-07-29T14:14:15;6.00;;;3.67;;
3329;SDS011;1677;49.576;10.990;2022-07-29T14:16:40;5.00;;;4.10;;
3329;SDS011;1677;49.576;10.990;2022-07-29T14:19:06;10.93;;;3.83;;
3329;SDS011;1677;49.576;10.990;2022-07-29T14:21:32;29.80;;;7.50;;
3329;SDS011;1677;49.576;10.990;2022-07-29T14:23:58;14.70;;;6.10;;
3329;SDS011;1677;49.576;10.990;2022-07-29T14:26:23;19.17;;;7.60;;
3329;SDS011;1677;49.576;10.990;2022-07-29T14:28:49;7.73;;;4.43;;
3329;SDS011;1677;49.576;10.990;2022-07-29T14:31:15;7.53;;;4.40;;
3329;SDS011;1677;49.576;10.990;2022-07-29T14:33:41;7.70;;;4.77;;
3329;SDS011;1677;49.576;10.990;2022-07-29T14:36:07;6.47;;;3.27;;
3329;SDS011;1677;49.576;10.990;2022-07-29T14:38:34;5.70;;;4.07;;
3329;SDS011;1677;49.576;10.990;2022-07-29T14:41:00;7.20;;;4.80;;
3329;SDS011;1677;49.576;10.990;2022-07-29T14:43:26;5.40;;;4.00;;
3329;SDS011;1677;49.576;10.990;2022-07-29T14:45:51;7.70;;;4.17;;
3329;SDS011;1677;49.576;10.990;2022-07-29T14:48:17;4.47;;;3.90;;
3329;SDS011;1677;49.576;10.990;2022-07-29T14:50:42;4.30;;;3.87;;
3329;SDS011;1677;49.576;10.990;2022-07-29T14:53:08;7.70;;;4.10;;
3329;SDS011;1677;49.576;10.990;2022-07-29T14:55:33;10.77;;;4.40;;
3329;SDS011;1677;49.576;10.990;2022-07-29T14:58:00;6.23;;;4.43;;
3329;SDS011;1677;49.576;10.990;2022-07-29T15:00:26;7.07;;;4.33;;
3329;SDS011;1677;49.576;10.990;2022-07-29T15:02:51;4.37;;;3.97;;
3329;SDS011;1677;49.576;10.990;2022-07-29T15:05:17;5.30;;;4.30;;
3329;SDS011;1677;49.576;10.990;2022-07-29T15:07:42;6.17;;;4.60;;
3329;SDS011;1677;49.576;10.990;2022-07-29T15:10:08;4.40;;;3.90;;
3329;SDS011;1677;49.576;10.990;2022-07-29T15:12:34;7.10;;;4.80;;
3329;SDS011;1677;49.576;10.990;2022-07-29T15:14:59;5.23;;;4.73;;
3329;SDS011;1677;49.576;10.990;2022-07-29T15:17:25;4.83;;;4.10;;
3329;SDS011;1677;49.576;10.990;2022-07-29T15:19:51;4.93;;;4.50;;
3329;SDS011;1677;49.576;10.990;2022-07-29T15:22:16;6.63;;;4.43;;
3329;SDS011;1677;49.576;10.990;2022-07-29T15:24:42;6.67;;;5.03;;
3329;SDS011;1677;49.576;10.990;2022-07-29T15:27:09;5.20;;;4.70;;
3329;SDS011;1677;49.576;10.990;2022-07-29T15:29:39;5.00;;;4.50;;
3329;SDS011;1677;49.576;10.990;2022-07-29T15:32:07;6.60;;;5.13;;
3329;SDS011;1677;49.576;10.990;2022-07-29T15:34:33;6.97;;;5.90;;
3329;SDS011;1677;49.576;10.990;2022-07-29T15:36:59;9.70;;;5.90;;
3329;SDS011;1677;49.576;10.990;2022-07-29T15:39:25;7.33;;;5.30;;
3329;SDS011;1677;49.576;10.990;2022-07-29T15:41:51;7.77;;;5.43;;
3329;SDS011;1677;49.576;10.990;2022-07-29T15:44:17;6.33;;;5.20;;
3329;SDS011;1677;49.576;10.990;2022-07-29T15:46:42;7.23;;;4.73;;
3329;SDS011;1677;49.576;10.990;2022-07-29T15:49:27;6.63;;;5.00;;
3329;SDS011;1677;49.576;10.990;2022-07-29T15:51:57;5.67;;;4.60;;
3329;SDS011;1677;49.576;10.990;2022-07-29T15:54:28;7.47;;;5.25;;
3329;SDS011;1677;49.576;10.990;2022-07-29T15:56:57;5.33;;;4.93;;
3329;SDS011;1677;49.576;10.990;2022-07-29T15:59:23;5.23;;;4.27;;
3329;SDS011;1677;49.576;10.990;2022-07-29T16:01:49;7.10;;;5.60;;
3329;SDS011;1677;49.576;10.990;2022-07-29T16:04:15;6.77;;;4.70;;
3329;SDS011;1677;49.576;10.990;2022-07-29T16:06:41;5.13;;;4.53;;
3329;SDS011;1677;49.576;10.990;2022-07-29T16:09:07;6.50;;;4.40;;
3329;SDS011;1677;49.576;10.990;2022-07-29T16:11:33;5.20;;;4.30;;
3329;SDS011;1677;49.576;10.990;2022-07-29T16:13:58;6.73;;;4.90;;